createdAt,value
2022-09-02T00:03:35.296Z,12
2022-09-02T00:07:23.024Z,12
2022-09-02T00:08:39.266Z,11.9
2022-09-02T00:09:55.508Z,12
2022-09-02T00:15:00.450Z,11.8
2022-09-02T00:16:16.693Z,11.8
2022-09-02T00:21:21.654Z,11.8
2022-09-02T00:22:37.909Z,11.8
2022-09-02T00:26:31.138Z,11.9
2022-09-02T00:27:42.856Z,11.9
2022-09-02T00:28:59.090Z,11.8
2022-09-02T00:30:14.343Z,11.8
2022-09-02T00:40:24.271Z,11.7
2022-09-02T00:41:39.536Z,11.6
2022-09-02T00:42:54.787Z,11.7
2022-09-02T00:44:11.041Z,11.6
2022-09-02T00:45:27.265Z,11.6
2022-09-02T00:46:43.500Z,11.7
2022-09-02T00:47:59.749Z,11.6
2022-09-02T00:49:15.995Z,11.6
2022-09-02T00:50:32.227Z,11.6
2022-09-02T00:51:48.459Z,11.6
2022-09-02T00:53:04.702Z,11.6
2022-09-02T00:54:20.955Z,11.5
2022-09-02T00:55:36.200Z,11.5
2022-09-02T00:56:51.466Z,11.5
2022-09-02T00:58:06.728Z,11.4
2022-09-02T00:59:21.989Z,11.5
2022-09-02T01:00:38.215Z,11.4
2022-09-02T01:01:54.471Z,11.4
2022-09-02T01:03:10.694Z,11.4
2022-09-02T01:04:26.944Z,11.4
2022-09-02T01:05:43.172Z,11.4
2022-09-02T01:06:59.416Z,11.4
2022-09-02T01:08:15.665Z,11.3
2022-09-02T01:09:31.897Z,11.3
2022-09-02T01:10:48.130Z,11.3
2022-09-02T01:12:03.396Z,11.3
2022-09-02T01:13:18.647Z,11.3
2022-09-02T01:14:34.898Z,11.3
2022-09-02T01:15:51.125Z,11.2
2022-09-02T01:17:07.367Z,11.2
2022-09-02T01:18:23.604Z,11.2
2022-09-02T01:19:39.858Z,11.2
2022-09-02T01:20:56.087Z,11.2
2022-09-02T01:22:12.333Z,11.2
2022-09-02T01:23:28.576Z,11.2
2022-09-02T01:24:44.817Z,11.1
2022-09-02T01:26:01.057Z,11.1
2022-09-02T01:27:17.295Z,11.1
2022-09-02T01:28:33.529Z,11
2022-09-02T01:29:48.775Z,11
2022-09-02T01:31:05.022Z,11
2022-09-02T01:32:21.264Z,11
2022-09-02T01:33:37.493Z,11
2022-09-02T01:34:53.739Z,11
2022-09-02T01:36:09.971Z,11
2022-09-02T01:37:26.224Z,10.9
2022-09-02T01:38:41.489Z,10.9
2022-09-02T01:39:56.732Z,10.9
2022-09-02T01:41:12.974Z,10.9
2022-09-02T01:42:29.210Z,10.9
2022-09-02T01:43:45.463Z,10.8
2022-09-02T01:45:01.685Z,10.9
2022-09-02T01:46:17.931Z,10.8
2022-09-02T01:47:34.174Z,10.8
2022-09-02T01:50:06.663Z,10.8
2022-09-02T01:51:22.884Z,10.8
2022-09-02T01:52:39.127Z,10.8
2022-09-02T01:53:55.378Z,10.8
2022-09-02T01:55:11.613Z,10.8
2022-09-02T01:56:26.873Z,10.8
2022-09-02T01:57:43.113Z,10.8
2022-09-02T01:58:59.338Z,10.7
2022-09-02T02:00:15.576Z,10.8
2022-09-02T02:01:31.830Z,10.7
2022-09-02T02:02:48.055Z,10.7
2022-09-02T02:04:04.301Z,10.7
2022-09-02T02:05:20.554Z,10.7
2022-09-02T02:06:36.780Z,10.7
2022-09-02T02:07:53.013Z,10.7
2022-09-02T02:09:09.253Z,10.7
2022-09-02T02:10:25.510Z,10.6
2022-09-02T02:11:41.742Z,10.6
2022-09-02T02:12:57.001Z,10.6
2022-09-02T02:14:13.231Z,10.6
2022-09-02T02:16:45.714Z,10.6
2022-09-02T02:18:01.953Z,10.6
2022-09-02T02:19:18.192Z,10.6
2022-09-02T02:20:34.428Z,10.6
2022-09-02T02:21:50.677Z,10.5
2022-09-02T02:23:06.920Z,10.6
2022-09-02T02:24:23.156Z,10.5
2022-09-02T02:25:39.398Z,10.5
2022-09-02T02:26:55.641Z,10.6
2022-09-02T02:28:11.869Z,10.6
2022-09-02T02:29:27.137Z,10.5
2022-09-02T02:30:43.359Z,10.5
2022-09-02T02:31:59.598Z,10.6
2022-09-02T02:33:15.855Z,10.6
2022-09-02T02:34:32.083Z,10.6
2022-09-02T02:35:48.336Z,10.6
2022-09-02T02:37:04.570Z,10.6
2022-09-02T02:38:20.807Z,10.6
2022-09-02T02:39:37.048Z,10.6
2022-09-02T02:40:53.288Z,10.6
2022-09-02T02:42:09.531Z,10.6
2022-09-02T02:43:25.771Z,10.6
2022-09-02T02:44:41.998Z,10.6
2022-09-02T02:45:57.250Z,10.6
2022-09-02T02:47:13.490Z,10.6
2022-09-02T02:48:29.745Z,10.6
2022-09-02T02:49:45.973Z,10.6
2022-09-02T02:51:02.207Z,10.5
2022-09-02T02:52:17.472Z,10.5
2022-09-02T02:53:33.718Z,10.5
2022-09-02T02:54:49.968Z,10.4
2022-09-02T02:56:06.193Z,10.4
2022-09-02T02:57:22.429Z,10.4
2022-09-02T02:58:38.681Z,10.3
2022-09-02T02:59:54.918Z,10.3
2022-09-02T03:01:11.163Z,10.3
2022-09-02T03:02:27.386Z,10.3
2022-09-02T03:03:43.630Z,10.3
2022-09-02T03:04:59.873Z,10.3
2022-09-02T03:06:16.113Z,10.3
2022-09-02T03:07:32.351Z,10.2
2022-09-02T03:08:47.601Z,10.2
2022-09-02T03:10:03.855Z,10.2
2022-09-02T03:11:20.094Z,10.2
2022-09-02T03:12:36.319Z,10.2
2022-09-02T03:13:52.572Z,10.1
2022-09-02T03:15:08.808Z,10.2
2022-09-02T03:16:25.046Z,10.1
2022-09-02T03:17:41.280Z,10.1
2022-09-02T03:18:57.526Z,10.1
2022-09-02T03:20:13.761Z,10.1
2022-09-02T03:21:30.004Z,10.1
2022-09-02T03:22:46.241Z,10.1
2022-09-02T03:24:02.485Z,10.1
2022-09-02T03:25:17.727Z,10.1
2022-09-02T03:26:33.991Z,10
2022-09-02T03:27:50.225Z,10
2022-09-02T03:29:06.450Z,10
2022-09-02T03:30:22.693Z,10
2022-09-02T03:31:38.928Z,10
2022-09-02T03:32:55.185Z,10.1
2022-09-02T03:34:11.410Z,10
2022-09-02T03:35:27.663Z,10
2022-09-02T03:36:43.893Z,10
2022-09-02T03:38:00.127Z,10
2022-09-02T03:39:16.373Z,10
2022-09-02T03:40:32.606Z,10
2022-09-02T03:41:47.877Z,10
2022-09-02T03:43:04.117Z,10
2022-09-02T03:44:20.359Z,9.9
2022-09-02T03:45:36.592Z,9.9
2022-09-02T03:48:09.067Z,10
2022-09-02T03:49:25.308Z,10
2022-09-02T03:50:41.542Z,10
2022-09-02T03:51:57.790Z,10
2022-09-02T03:53:14.037Z,10
2022-09-02T03:54:30.261Z,9.9
2022-09-02T03:55:46.502Z,9.9
2022-09-02T03:57:02.740Z,9.9
2022-09-02T03:58:18.004Z,9.9
2022-09-02T03:59:34.236Z,9.9
2022-09-02T04:00:50.479Z,9.9
2022-09-02T04:02:06.717Z,9.9
2022-09-02T04:03:22.954Z,9.9
2022-09-02T04:04:39.192Z,9.9
2022-09-02T04:05:55.435Z,9.9
2022-09-02T04:07:11.684Z,9.9
2022-09-02T04:08:27.929Z,9.9
2022-09-02T04:09:44.156Z,9.9
2022-09-02T04:11:00.403Z,9.9
2022-09-02T04:12:16.627Z,10
2022-09-02T04:13:32.878Z,9.9
2022-09-02T04:14:48.127Z,9.9
2022-09-02T04:16:04.371Z,10
2022-09-02T04:17:20.621Z,9.9
2022-09-02T04:18:36.859Z,10
2022-09-02T04:19:53.100Z,9.9
2022-09-02T04:21:09.334Z,9.9
2022-09-02T04:22:25.579Z,9.8
2022-09-02T04:23:41.805Z,9.9
2022-09-02T04:24:58.045Z,9.8
2022-09-02T04:26:14.286Z,9.8
2022-09-02T04:27:30.528Z,9.8
2022-09-02T04:28:46.779Z,9.8
2022-09-02T04:30:03.005Z,9.8
2022-09-02T04:31:18.257Z,9.8
2022-09-02T04:32:34.514Z,9.9
2022-09-02T04:33:50.754Z,9.9
2022-09-02T04:35:06.979Z,9.9
2022-09-02T04:36:23.222Z,10
2022-09-02T04:37:39.463Z,9.9
2022-09-02T04:38:55.713Z,9.9
2022-09-02T04:40:11.946Z,9.9
2022-09-02T04:41:28.185Z,9.9
2022-09-02T04:42:44.431Z,9.9
2022-09-02T04:44:00.656Z,9.9
2022-09-02T04:45:16.895Z,9.9
2022-09-02T04:46:33.145Z,9.9
2022-09-02T04:47:48.389Z,9.9
2022-09-02T04:49:04.644Z,9.8
2022-09-02T04:50:20.877Z,9.8
2022-09-02T04:51:37.101Z,9.8
2022-09-02T04:52:53.359Z,9.8
2022-09-02T04:54:09.594Z,9.8
2022-09-02T04:55:25.832Z,9.8
2022-09-02T04:56:42.065Z,9.8
2022-09-02T04:57:58.305Z,9.8
2022-09-02T04:59:14.559Z,9.8
2022-09-02T05:00:30.801Z,9.8
2022-09-02T05:01:47.030Z,9.8
2022-09-02T05:03:03.276Z,9.7
2022-09-02T05:04:18.533Z,9.8
2022-09-02T05:05:34.768Z,9.8
2022-09-02T05:06:51.000Z,9.8
2022-09-02T05:08:07.244Z,9.8
2022-09-02T05:09:23.472Z,9.8
2022-09-02T05:10:39.727Z,9.8
2022-09-02T05:11:55.968Z,9.8
2022-09-02T05:13:12.198Z,9.8
2022-09-02T05:14:28.453Z,9.9
2022-09-02T05:15:44.683Z,9.9
2022-09-02T05:17:00.935Z,9.9
2022-09-02T05:18:17.160Z,9.9
2022-09-02T05:19:33.398Z,9.8
2022-09-02T05:20:48.666Z,9.9
2022-09-02T05:22:04.891Z,9.9
2022-09-02T05:23:21.131Z,9.9
2022-09-02T05:24:37.371Z,9.9
2022-09-02T05:25:53.609Z,10
2022-09-02T05:27:09.849Z,10
2022-09-02T05:28:26.087Z,10.1
2022-09-02T05:29:42.341Z,10.1
2022-09-02T05:30:58.583Z,10.1
2022-09-02T05:32:14.813Z,10.2
2022-09-02T05:33:31.051Z,10.2
2022-09-02T05:34:47.285Z,10.3
2022-09-02T05:36:03.532Z,10.3
2022-09-02T05:37:18.797Z,10.4
2022-09-02T05:38:35.025Z,10.5
2022-09-02T05:39:51.268Z,10.5
2022-09-02T05:41:07.512Z,10.6
2022-09-02T05:42:23.747Z,10.7
2022-09-02T05:43:39.996Z,10.7
2022-09-02T05:44:56.224Z,10.8
2022-09-02T05:46:12.471Z,10.8
2022-09-02T05:47:28.690Z,10.9
2022-09-02T05:48:44.950Z,10.9
2022-09-02T05:50:01.187Z,11
2022-09-02T05:51:17.420Z,11
2022-09-02T05:52:33.657Z,11
2022-09-02T05:53:48.933Z,11.1
2022-09-02T05:55:05.164Z,11.1
2022-09-02T05:56:21.411Z,11.2
2022-09-02T05:57:37.622Z,11.2
2022-09-02T05:58:53.888Z,11.3
2022-09-02T06:00:10.109Z,11.4
2022-09-02T06:01:26.370Z,11.4
2022-09-02T06:02:42.601Z,11.4
2022-09-02T06:03:58.837Z,11.5
2022-09-02T06:05:15.087Z,11.5
2022-09-02T06:06:31.310Z,11.6
2022-09-02T06:07:47.554Z,11.6
2022-09-02T06:09:03.787Z,11.6
2022-09-02T06:10:19.034Z,11.7
2022-09-02T06:11:35.289Z,11.7
2022-09-02T06:12:51.539Z,11.8
2022-09-02T06:14:07.766Z,11.8
2022-09-02T06:15:24.011Z,11.8
2022-09-02T06:16:40.260Z,11.9
2022-09-02T06:17:56.479Z,11.9
2022-09-02T06:19:12.738Z,12
2022-09-02T06:20:28.964Z,12
2022-09-02T06:21:45.213Z,12
2022-09-02T06:23:01.436Z,12.1
2022-09-02T06:24:17.697Z,12.2
2022-09-02T06:25:33.914Z,12.2
2022-09-02T06:26:49.182Z,12.3
2022-09-02T06:28:05.426Z,12.3
2022-09-02T06:29:21.656Z,12.4
2022-09-02T06:30:37.898Z,12.5
2022-09-02T06:31:54.122Z,12.6
2022-09-02T06:33:10.359Z,12.7
2022-09-02T06:34:26.615Z,12.7
2022-09-02T06:35:42.863Z,12.8
2022-09-02T06:36:59.082Z,12.9
2022-09-02T06:38:15.329Z,13
2022-09-02T06:40:47.796Z,13.1
2022-09-02T06:42:04.036Z,13.1
2022-09-02T06:43:19.295Z,13.3
2022-09-02T06:44:35.531Z,13.4
2022-09-02T06:45:51.774Z,13.4
2022-09-02T06:47:08.010Z,13.5
2022-09-02T06:48:24.251Z,13.6
2022-09-02T06:50:56.725Z,13.7
2022-09-02T06:52:12.969Z,13.7
2022-09-02T06:53:29.220Z,13.8
2022-09-02T06:54:45.457Z,13.9
2022-09-02T06:56:01.699Z,13.9
2022-09-02T06:57:17.925Z,14
2022-09-02T06:58:34.180Z,14
2022-09-02T06:59:49.426Z,14.1
2022-09-02T07:01:05.668Z,14.2
2022-09-02T07:02:21.917Z,14.3
2022-09-02T07:03:38.156Z,14.4
2022-09-02T07:04:54.377Z,14.5
2022-09-02T07:06:10.619Z,14.6
2022-09-02T07:07:25.879Z,14.9
2022-09-02T07:08:42.129Z,15.1
2022-09-02T07:09:58.366Z,15.4
2022-09-02T07:11:14.604Z,15.7
2022-09-02T07:12:30.844Z,16
2022-09-02T07:13:47.085Z,16.4
2022-09-02T07:15:03.313Z,16.7
2022-09-02T07:16:19.561Z,17.3
2022-09-02T07:17:35.808Z,17.8
2022-09-02T07:18:52.030Z,18.5
2022-09-02T07:20:08.276Z,19.2
2022-09-02T07:21:24.517Z,19.7
2022-09-02T07:22:40.766Z,20.3
2022-09-02T07:23:56.009Z,20.8
2022-09-02T07:25:12.244Z,21.2
2022-09-02T07:26:28.497Z,21.6
2022-09-02T07:27:44.723Z,21.9
2022-09-02T07:29:00.975Z,22.2
2022-09-02T07:31:33.444Z,22.9
2022-09-02T07:32:49.682Z,23.2
2022-09-02T07:34:05.916Z,23.3
2022-09-02T07:35:22.164Z,23.5
2022-09-02T07:39:10.884Z,24.3
2022-09-02T07:40:26.136Z,24.6
2022-09-02T07:41:41.392Z,24.5
2022-09-02T07:42:57.630Z,24.4
2022-09-02T07:44:13.861Z,24.5
2022-09-02T07:45:30.101Z,24.6
2022-09-02T07:46:46.353Z,24.7
2022-09-02T07:48:02.579Z,24.5
2022-09-02T07:49:18.819Z,24.4
2022-09-02T07:50:35.075Z,24.1
2022-09-02T07:51:51.313Z,24
2022-09-02T07:53:07.540Z,23.9
2022-09-02T07:54:22.805Z,23.6
2022-09-02T07:55:38.070Z,23.5
2022-09-02T07:56:53.322Z,23.3
2022-09-02T07:59:24.827Z,23.1
2022-09-02T08:00:41.059Z,22.7
2022-09-02T08:01:57.297Z,22.6
2022-09-02T08:03:13.533Z,22.6
2022-09-02T08:04:29.773Z,22.5
2022-09-02T08:07:02.251Z,22.5
2022-09-02T08:08:18.496Z,22.4
2022-09-02T08:09:34.731Z,22.3
2022-09-02T08:10:50.980Z,22.1
2022-09-02T08:12:07.217Z,22.1
2022-09-02T08:14:39.703Z,22.2
2022-09-02T08:15:54.949Z,22.2
2022-09-02T08:17:10.190Z,22.2
2022-09-02T08:18:25.460Z,22.3
2022-09-02T08:23:30.413Z,22.3
2022-09-02T08:24:45.659Z,22.5
2022-09-02T08:26:01.917Z,22.7
2022-09-02T08:27:18.149Z,22.8
2022-09-02T08:28:34.377Z,23
2022-09-02T08:29:50.632Z,23.2
2022-09-02T08:31:06.864Z,23.6
2022-09-02T08:32:23.100Z,24
2022-09-02T08:33:39.341Z,24.6
2022-09-02T08:34:54.596Z,25
2022-09-02T08:36:09.863Z,25.2
2022-09-02T08:37:26.103Z,25.2
2022-09-02T08:38:42.341Z,25.3
2022-09-02T08:39:58.571Z,25.3
2022-09-02T08:41:14.821Z,25.6
2022-09-02T08:42:31.060Z,26.2
2022-09-02T08:45:03.534Z,26.6
2022-09-02T08:46:19.780Z,26.6
2022-09-02T08:48:52.247Z,26.4
2022-09-02T08:50:08.491Z,26.3
2022-09-02T08:51:23.747Z,25.9
2022-09-02T08:53:55.241Z,25.1
2022-09-02T08:55:11.480Z,24.9
2022-09-02T08:56:27.713Z,24.7
2022-09-02T08:57:43.962Z,24.5
2022-09-02T08:59:00.205Z,24.4
2022-09-02T09:00:16.428Z,24.4
2022-09-02T09:01:32.670Z,24.5
2022-09-02T09:02:48.908Z,24.4
2022-09-02T09:04:05.144Z,24.4
2022-09-02T09:05:21.387Z,24.1
2022-09-02T09:06:36.642Z,23.8
2022-09-02T09:07:51.908Z,23.4
2022-09-02T09:09:08.137Z,23.1
2022-09-02T09:10:24.402Z,23.1
2022-09-02T09:11:40.636Z,22.9
2022-09-02T09:14:13.116Z,22.7
2022-09-02T09:15:29.360Z,22.7
2022-09-02T09:16:45.584Z,22.6
2022-09-02T09:18:01.824Z,22.6
2022-09-02T09:19:18.062Z,22.6
2022-09-02T09:20:34.310Z,22.5
2022-09-02T09:21:50.551Z,22.6
2022-09-02T09:23:06.778Z,22.7
2022-09-02T09:24:22.034Z,22.9
2022-09-02T09:26:54.526Z,23.2
2022-09-02T09:28:10.761Z,23.4
2022-09-02T09:29:26.026Z,23.7
2022-09-02T09:30:42.269Z,24.1
2022-09-02T09:31:57.509Z,24.4
2022-09-02T09:33:13.748Z,24.5
2022-09-02T09:34:29.987Z,24.5
2022-09-02T09:35:46.237Z,24.6
2022-09-02T09:37:02.462Z,24.5
2022-09-02T09:38:18.722Z,24.5
2022-09-02T09:39:34.950Z,24.4
2022-09-02T09:40:51.186Z,24.4
2022-09-02T09:43:23.658Z,24.1
2022-09-02T09:44:39.902Z,24
2022-09-02T09:45:56.143Z,24.3
2022-09-02T09:47:12.382Z,24.4
2022-09-02T09:48:27.645Z,24.5
2022-09-02T09:51:00.116Z,24.4
2022-09-02T09:52:15.381Z,24.3
2022-09-02T09:53:30.644Z,24.3
2022-09-02T09:54:46.872Z,24.2
2022-09-02T09:57:19.362Z,24.2
2022-09-02T09:58:35.605Z,24.3
2022-09-02T09:59:51.828Z,24.3
2022-09-02T10:01:08.073Z,24.4
2022-09-02T10:02:24.311Z,24.4
2022-09-02T10:03:40.559Z,24.5
2022-09-02T10:04:56.790Z,24.5
2022-09-02T10:06:13.024Z,24.3
2022-09-02T10:07:29.260Z,24.1
2022-09-02T10:11:17.995Z,24.3
2022-09-02T10:12:33.239Z,24.3
2022-09-02T10:13:49.478Z,24.3
2022-09-02T10:15:05.725Z,24.4
2022-09-02T10:16:21.973Z,24.3
2022-09-02T10:17:38.200Z,24.2
2022-09-02T10:18:54.440Z,24.2
2022-09-02T10:26:31.870Z,23.9
2022-09-02T10:29:04.351Z,24.2
2022-09-02T10:30:19.634Z,24.3
2022-09-02T10:31:34.882Z,24.4
2022-09-02T10:32:51.122Z,24.5
2022-09-02T10:34:06.375Z,24.6
2022-09-02T10:35:21.635Z,24.6
2022-09-02T10:39:10.328Z,24.6
2022-09-02T10:40:26.576Z,24.4
2022-09-02T10:44:15.302Z,23.9
2022-09-02T10:45:31.541Z,23.8
2022-09-02T10:46:47.786Z,23.6
2022-09-02T10:48:04.016Z,23.4
2022-09-02T10:49:20.257Z,23.2
2022-09-02T10:50:36.493Z,23.2
2022-09-02T10:51:51.750Z,23.1
2022-09-02T10:53:07.991Z,23.1
2022-09-02T10:54:24.234Z,23
2022-09-02T10:55:40.472Z,22.8
2022-09-02T10:56:56.708Z,22.8
2022-09-02T10:58:12.933Z,22.7
2022-09-02T10:59:29.174Z,22.6
2022-09-02T11:00:45.415Z,22.4
2022-09-02T11:02:01.651Z,22.4
2022-09-02T11:03:17.904Z,22.3
2022-09-02T11:04:33.154Z,22.4
2022-09-02T11:05:48.408Z,22.4
2022-09-02T11:07:04.662Z,22.5
2022-09-02T11:08:19.919Z,22.4
2022-09-02T11:09:35.175Z,22.2
2022-09-02T11:10:51.415Z,22.2
2022-09-02T11:12:07.644Z,22.1
2022-09-02T11:13:23.894Z,22
2022-09-02T11:14:40.119Z,22.1
2022-09-02T11:15:56.365Z,22
2022-09-02T11:17:12.604Z,21.8
2022-09-02T11:18:28.853Z,21.8
2022-09-02T11:19:45.093Z,21.9
2022-09-02T11:22:17.561Z,22.3
2022-09-02T11:23:32.837Z,22.6
2022-09-02T11:24:49.061Z,22.8
2022-09-02T11:26:05.302Z,23
2022-09-02T11:27:21.543Z,23.1
2022-09-02T11:28:37.776Z,23.2
2022-09-02T11:29:54.016Z,23.2
2022-09-02T11:31:10.281Z,23.4
2022-09-02T11:32:26.496Z,23.4
2022-09-02T11:33:42.749Z,23.5
2022-09-02T11:36:14.248Z,23.7
2022-09-02T11:37:30.491Z,23.7
2022-09-02T11:38:45.747Z,23.7
2022-09-02T11:40:00.999Z,23.7
2022-09-02T11:41:17.229Z,23.7
2022-09-02T11:42:32.509Z,23.7
2022-09-02T11:43:47.747Z,23.7
2022-09-02T11:45:03.988Z,23.5
2022-09-02T11:46:20.239Z,23.4
2022-09-02T11:47:36.466Z,23.3
2022-09-02T11:48:52.704Z,23.2
2022-09-02T11:50:08.959Z,22.9
2022-09-02T11:51:25.191Z,22.7
2022-09-02T11:52:41.427Z,22.6
2022-09-02T11:53:57.658Z,22.4
2022-09-02T11:55:13.908Z,22.4
2022-09-02T11:56:29.171Z,22.5
2022-09-02T11:57:44.418Z,22.6
2022-09-02T11:59:00.672Z,22.8
2022-09-02T12:00:16.907Z,22.9
2022-09-02T12:01:33.149Z,22.9
2022-09-02T12:02:49.375Z,22.9
2022-09-02T12:04:05.611Z,22.9
2022-09-02T12:05:21.870Z,22.9
2022-09-02T12:06:38.100Z,22.9
2022-09-02T12:07:54.338Z,23
2022-09-02T12:09:10.567Z,23.1
2022-09-02T12:10:25.835Z,23.2
2022-09-02T12:11:41.082Z,23.5
2022-09-02T12:12:57.325Z,23.6
2022-09-02T12:14:13.560Z,23.8
2022-09-02T12:15:29.804Z,24
2022-09-02T12:16:46.043Z,24.1
2022-09-02T12:18:02.289Z,24.2
2022-09-02T12:19:18.527Z,24.1
2022-09-02T12:20:34.762Z,23.9
2022-09-02T12:21:51.010Z,23.8
2022-09-02T12:23:07.233Z,23.5
2022-09-02T12:24:23.487Z,23.5
2022-09-02T12:26:55.965Z,23.3
2022-09-02T12:28:11.222Z,23.1
2022-09-02T12:29:27.460Z,23
2022-09-02T12:30:43.704Z,22.9
2022-09-02T12:31:59.929Z,22.9
2022-09-02T12:33:16.175Z,22.8
2022-09-02T12:34:32.420Z,22.8
2022-09-02T12:37:04.886Z,22.9
2022-09-02T12:38:21.143Z,22.9
2022-09-02T12:42:08.886Z,22.9
2022-09-02T12:43:24.150Z,22.9
2022-09-02T12:44:39.403Z,22.9
2022-09-02T12:45:54.664Z,23
2022-09-02T12:47:09.907Z,23.1
2022-09-02T12:48:26.157Z,23.3
2022-09-02T12:49:42.398Z,23.3
2022-09-02T12:50:58.625Z,23.1
2022-09-02T12:52:14.869Z,23.1
2022-09-02T12:53:31.099Z,23.1
2022-09-02T12:54:47.356Z,23.1
2022-09-02T12:56:03.592Z,23
2022-09-02T12:57:19.817Z,23
2022-09-02T12:58:36.055Z,22.9
2022-09-02T12:59:51.332Z,22.8
2022-09-02T13:01:06.572Z,22.8
2022-09-02T13:02:22.810Z,22.7
2022-09-02T13:03:39.071Z,22.8
2022-09-02T13:04:55.306Z,22.8
2022-09-02T13:06:11.531Z,22.8
2022-09-02T13:07:27.788Z,22.8
2022-09-02T13:08:44.010Z,22.8
2022-09-02T13:10:00.248Z,22.8
2022-09-02T13:11:16.487Z,22.8
2022-09-02T13:12:32.743Z,22.7
2022-09-02T13:13:48.970Z,22.6
2022-09-02T13:15:05.216Z,22.5
2022-09-02T13:16:21.451Z,22.4
2022-09-02T13:17:36.709Z,22.4
2022-09-02T13:18:52.937Z,22.4
2022-09-02T13:20:09.187Z,22.4
2022-09-02T13:21:25.424Z,22.5
2022-09-02T13:22:41.661Z,22.5
2022-09-02T13:23:57.896Z,22.5
2022-09-02T13:25:14.133Z,22.4
2022-09-02T13:26:29.398Z,22.4
2022-09-02T13:27:44.662Z,22.3
2022-09-02T13:28:59.909Z,22.2
2022-09-02T13:30:15.164Z,22.3
2022-09-02T13:31:31.419Z,22.2
2022-09-02T13:32:47.645Z,22.2
2022-09-02T13:34:03.889Z,22.1
2022-09-02T13:35:20.126Z,22.2
2022-09-02T13:36:36.368Z,22.2
2022-09-02T13:37:52.618Z,22.2
2022-09-02T13:39:08.854Z,22.2
2022-09-02T13:40:25.086Z,22.2
2022-09-02T13:41:41.318Z,22.2
2022-09-02T13:42:57.556Z,22.2
2022-09-02T13:44:13.800Z,22.2
2022-09-02T13:45:30.045Z,22.2
2022-09-02T13:46:45.300Z,22.2
2022-09-02T13:48:01.544Z,22.4
2022-09-02T13:49:17.781Z,22.7
2022-09-02T13:50:34.028Z,23
2022-09-02T13:51:50.248Z,23.3
2022-09-02T13:53:06.490Z,23.5
2022-09-02T13:54:22.745Z,23.6
2022-09-02T13:55:38.002Z,23.7
2022-09-02T13:56:53.242Z,23.9
2022-09-02T13:58:09.489Z,23.9
2022-09-02T13:59:25.741Z,24.1
2022-09-02T14:00:41.960Z,24.2
2022-09-02T14:01:58.219Z,24.3
2022-09-02T14:03:14.444Z,24.4
2022-09-02T14:04:30.694Z,24.4
2022-09-02T14:05:46.927Z,24.5
2022-09-02T14:07:03.165Z,24.4
2022-09-02T14:08:19.410Z,24.6
2022-09-02T14:09:35.647Z,24.5
2022-09-02T14:10:51.888Z,24.6
2022-09-02T14:12:08.122Z,24.7
2022-09-02T14:13:23.375Z,24.9
2022-09-02T14:14:39.607Z,24.8
2022-09-02T14:15:55.864Z,24.8
2022-09-02T14:17:12.086Z,24.8
2022-09-02T14:18:28.332Z,24.7
2022-09-02T14:19:44.580Z,24.7
2022-09-02T14:21:00.820Z,24.7
2022-09-02T14:22:16.065Z,24.7
2022-09-02T14:23:31.322Z,24.7
2022-09-02T14:24:46.596Z,24.5
2022-09-02T14:26:01.836Z,24.5
2022-09-02T14:27:18.086Z,24.5
2022-09-02T14:28:34.312Z,24.4
2022-09-02T14:29:50.561Z,24.1
2022-09-02T14:31:06.811Z,23.9
2022-09-02T14:32:23.035Z,23.9
2022-09-02T14:33:39.271Z,23.8
2022-09-02T14:34:55.517Z,23.7
2022-09-02T14:36:11.757Z,23.7
2022-09-02T14:37:28.000Z,23.7
2022-09-02T14:38:44.246Z,23.7
2022-09-02T14:40:00.486Z,23.5
2022-09-02T14:41:16.717Z,23.5
2022-09-02T14:42:31.974Z,23.3
2022-09-02T14:43:48.202Z,23.2
2022-09-02T14:45:04.458Z,23.1
2022-09-02T14:46:20.689Z,23
2022-09-02T14:47:36.934Z,22.8
2022-09-02T14:48:53.169Z,22.6
2022-09-02T14:50:09.401Z,22.6
2022-09-02T14:51:24.663Z,22.5
2022-09-02T14:52:39.923Z,22.4
2022-09-02T14:53:55.178Z,22.2
2022-09-02T14:55:10.443Z,22
2022-09-02T14:56:26.689Z,21.9
2022-09-02T14:57:42.921Z,21.9
2022-09-02T14:58:59.163Z,21.7
2022-09-02T15:00:15.392Z,21.9
2022-09-02T15:01:31.629Z,22.1
2022-09-02T15:02:47.869Z,22.6
2022-09-02T15:04:04.125Z,23
2022-09-02T15:05:20.358Z,23.3
2022-09-02T15:06:36.591Z,23.5
2022-09-02T15:07:52.825Z,23.8
2022-09-02T15:09:09.073Z,24.1
2022-09-02T15:10:25.000Z,23.9
2022-09-02T15:11:40.556Z,23.8
2022-09-02T15:12:56.797Z,23.7
2022-09-02T15:14:13.053Z,23.4
2022-09-02T15:15:29.281Z,23.3
2022-09-02T15:16:45.512Z,23
2022-09-02T15:18:01.770Z,22.8
2022-09-02T15:19:17.994Z,22.7
2022-09-02T15:20:33.266Z,22.5
2022-09-02T15:21:48.516Z,22.4
2022-09-02T15:23:04.758Z,22.4
2022-09-02T15:24:20.990Z,22.3
2022-09-02T15:25:37.232Z,22.1
2022-09-02T15:26:53.478Z,22.1
2022-09-02T15:28:09.720Z,22
2022-09-02T15:29:25.946Z,21.9
2022-09-02T15:30:42.187Z,21.7
2022-09-02T15:31:58.432Z,21.7
2022-09-02T15:33:14.673Z,21.7
2022-09-02T15:34:30.914Z,21.7
2022-09-02T15:35:47.148Z,21.6
2022-09-02T15:37:03.392Z,21.6
2022-09-02T15:38:18.653Z,21.4
2022-09-02T15:39:34.879Z,21.3
2022-09-02T15:40:51.134Z,21.4
2022-09-02T15:42:07.360Z,21.4
2022-09-02T15:43:23.600Z,21.4
2022-09-02T15:44:39.842Z,21.4
2022-09-02T15:45:56.091Z,21.4
2022-09-02T15:47:11.335Z,21.5
2022-09-02T15:48:26.591Z,21.6
2022-09-02T15:49:41.850Z,21.7
2022-09-02T15:50:57.107Z,21.7
2022-09-02T15:52:13.345Z,21.8
2022-09-02T15:53:29.588Z,21.8
2022-09-02T15:54:45.827Z,21.9
2022-09-02T15:56:02.070Z,21.9
2022-09-02T15:57:18.302Z,21.8
2022-09-02T15:58:34.549Z,21.8
2022-09-02T15:59:50.786Z,21.8
2022-09-02T16:01:07.030Z,21.7
2022-09-02T16:02:23.259Z,21.7
2022-09-02T16:03:39.511Z,21.6
2022-09-02T16:04:55.751Z,21.6
2022-09-02T16:06:11.994Z,21.5
2022-09-02T16:07:27.244Z,21.5
2022-09-02T16:08:43.474Z,21.5
2022-09-02T16:09:59.728Z,21.5
2022-09-02T16:11:15.949Z,21.4
2022-09-02T16:12:32.197Z,21.4
2022-09-02T16:13:48.437Z,21.3
2022-09-02T16:15:04.678Z,21.3
2022-09-02T16:16:19.937Z,21.3
2022-09-02T16:17:35.183Z,21.2
2022-09-02T16:18:50.457Z,21.2
2022-09-02T16:20:05.708Z,21.1
2022-09-02T16:21:20.959Z,21.1
2022-09-02T16:22:36.223Z,21
2022-09-02T16:23:52.463Z,21
2022-09-02T16:25:08.709Z,21
2022-09-02T16:26:24.948Z,20.9
2022-09-02T16:27:41.172Z,20.9
2022-09-02T16:28:57.421Z,20.8
2022-09-02T16:30:13.662Z,20.8
2022-09-02T16:31:29.908Z,20.8
2022-09-02T16:32:46.141Z,20.8
2022-09-02T16:34:02.371Z,20.8
2022-09-02T16:35:18.614Z,20.7
2022-09-02T16:36:34.846Z,20.7
2022-09-02T16:37:51.100Z,20.6
2022-09-02T16:39:06.344Z,20.7
2022-09-02T16:40:22.585Z,20.7
2022-09-02T16:41:38.828Z,20.7
2022-09-02T16:42:55.057Z,20.6
2022-09-02T16:44:11.296Z,20.6
2022-09-02T16:45:27.554Z,20.6
2022-09-02T16:46:43.780Z,20.5
2022-09-02T16:47:59.036Z,20.5
2022-09-02T16:49:14.303Z,20.5
2022-09-02T16:50:30.543Z,20.4
2022-09-02T16:51:46.777Z,20.4
2022-09-02T16:53:03.017Z,20.4
2022-09-02T16:54:19.255Z,20.4
2022-09-02T16:55:35.504Z,20.4
2022-09-02T16:56:51.734Z,20.4
2022-09-02T16:58:07.966Z,20.4
2022-09-02T16:59:24.209Z,20.4
2022-09-02T17:00:40.446Z,20.3
2022-09-02T17:01:56.691Z,20.3
2022-09-02T17:03:12.935Z,20.3
2022-09-02T17:04:29.166Z,20.3
2022-09-02T17:05:44.430Z,20.3
2022-09-02T17:07:00.672Z,20.2
2022-09-02T17:08:16.897Z,20.2
2022-09-02T17:09:33.134Z,20.2
2022-09-02T17:10:49.386Z,20.2
2022-09-02T17:12:05.626Z,20.1
2022-09-02T17:13:21.867Z,20.1
2022-09-02T17:14:37.123Z,20.1
2022-09-02T17:15:52.383Z,20.1
2022-09-02T17:17:08.616Z,20
2022-09-02T17:18:24.850Z,19.9
2022-09-02T17:19:41.095Z,19.9
2022-09-02T17:20:57.339Z,19.9
2022-09-02T17:22:13.578Z,19.9
2022-09-02T17:23:29.807Z,19.9
2022-09-02T17:24:46.051Z,19.9
2022-09-02T17:26:02.292Z,19.8
2022-09-02T17:27:18.533Z,19.8
2022-09-02T17:28:34.762Z,19.7
2022-09-02T17:29:51.000Z,19.7
2022-09-02T17:31:07.241Z,19.7
2022-09-02T17:32:22.497Z,19.6
2022-09-02T17:33:38.738Z,19.6
2022-09-02T17:34:54.987Z,19.6
2022-09-02T17:36:11.223Z,19.5
2022-09-02T17:37:27.458Z,19.5
2022-09-02T17:38:43.692Z,19.5
2022-09-02T17:39:59.941Z,19.4
2022-09-02T17:41:15.206Z,19.4
2022-09-02T17:42:30.459Z,19.4
2022-09-02T17:43:45.706Z,19.4
2022-09-02T17:45:00.975Z,19.4
2022-09-02T17:46:16.225Z,19.3
2022-09-02T17:47:31.483Z,19.4
2022-09-02T17:48:46.747Z,19.2
2022-09-02T17:50:01.993Z,19.2
2022-09-02T17:51:18.240Z,19.2
2022-09-02T17:52:34.489Z,19.2
2022-09-02T17:53:50.710Z,19.2
2022-09-02T17:56:23.189Z,19.1
2022-09-02T17:57:39.436Z,19
2022-09-02T17:58:55.677Z,19
2022-09-02T18:00:11.917Z,19
2022-09-02T18:01:28.149Z,19
2022-09-02T18:02:44.402Z,18.9
2022-09-02T18:04:00.639Z,18.8
2022-09-02T18:05:16.876Z,18.8
2022-09-02T18:06:32.131Z,18.8
2022-09-02T18:07:48.378Z,18.8
2022-09-02T18:09:04.616Z,18.7
2022-09-02T18:10:20.856Z,18.7
2022-09-02T18:11:37.095Z,18.7
2022-09-02T18:12:53.315Z,18.7
2022-09-02T18:14:09.569Z,18.7
2022-09-02T18:15:25.793Z,18.6
2022-09-02T18:16:41.055Z,18.5
2022-09-02T18:17:56.327Z,18.5